Time;durP1;ratioP1;P1;durP2;ratioP2;P2;SDS_P1;SDS_P2;PMS_P1;PMS_P2;Temp;Humidity;BMP_temperature;BMP_pressure;BME280_temperature;BME280_humidity;BME280_pressure;Samples;Min_cycle;Max_cycle;Signal;HPM_P1;HPM_P2
2022/12/28 00:02:18;;;;;;;14.17;6.90;;;;;;;5.59;75.45;101407.69;5102759;28;20210;-62
2022/12/28 00:04:46;;;;;;;16.90;7.40;;;;;;;5.66;75.06;101401.13;5108192;27;20253;-63
2022/12/28 00:07:13;;;;;;;14.80;7.27;;;;;;;5.67;75.02;101392.28;5105780;28;20225;-63
2022/12/28 00:09:41;;;;;;;13.77;7.83;;;;;;;5.63;75.25;101393.41;5104423;28;20663;-60
2022/12/28 00:12:09;;;;;;;15.43;7.53;;;;;;;5.71;74.90;101384.22;5108542;28;20225;-61
2022/12/28 00:14:38;;;;;;;14.63;8.20;;;;;;;5.59;74.84;101381.38;5106621;28;20202;-61
2022/12/28 00:17:05;;;;;;;14.03;7.37;;;;;;;5.45;75.87;101376.13;5106701;28;20238;-61
2022/12/28 00:19:33;;;;;;;18.63;7.90;;;;;;;5.42;76.24;101371.06;5104743;28;20714;-61
2022/12/28 00:22:01;;;;;;;14.93;7.33;;;;;;;5.45;76.03;101370.88;5103210;28;20202;-61
2022/12/28 00:24:29;;;;;;;17.17;7.90;;;;;;;5.45;75.98;101364.78;5111173;28;20332;-61
2022/12/28 00:26:57;;;;;;;14.23;7.43;;;;;;;5.34;76.29;101370.69;5097589;28;20199;-62
2022/12/28 00:29:24;;;;;;;18.23;8.60;;;;;;;5.18;76.92;101359.38;5088964;28;20206;-61
2022/12/28 00:31:53;;;;;;;15.80;8.53;;;;;;;4.99;78.14;101343.88;5102543;28;20280;-61
2022/12/28 00:34:21;;;;;;;14.20;7.43;;;;;;;4.91;78.81;101341.69;5103301;28;20748;-62
2022/12/28 00:36:50;;;;;;;18.80;7.73;;;;;;;4.80;79.42;101330.97;5106342;28;20202;-63
2022/12/28 00:39:38;;;;;;;15.47;7.80;;;;;;;4.73;79.96;101329.63;5106158;28;20214;-62
2022/12/28 00:42:06;;;;;;;19.13;7.67;;;;;;;4.76;80.24;101334.69;5103643;28;20237;-62
2022/12/28 00:44:33;;;;;;;14.60;7.63;;;;;;;4.75;80.72;101319.03;5103662;28;20233;-62
2022/12/28 00:47:02;;;;;;;15.03;7.80;;;;;;;4.73;80.79;101321.75;5106677;28;20213;-62
2022/12/28 00:49:30;;;;;;;15.63;8.17;;;;;;;4.72;80.92;101320.06;5104781;28;20211;-63
2022/12/28 00:51:58;;;;;;;15.17;7.87;;;;;;;4.70;81.08;101318.44;5104646;28;20223;-63
2022/12/28 00:54:25;;;;;;;13.03;7.77;;;;;;;4.69;81.75;101304.47;5107170;28;20217;-62
2022/12/28 00:56:53;;;;;;;16.30;7.60;;;;;;;4.84;81.45;101302.69;5109511;28;20593;-63
2022/12/28 00:59:21;;;;;;;18.37;7.87;;;;;;;4.97;80.49;101293.16;5100926;28;20213;-63
2022/12/28 01:01:49;;;;;;;19.67;8.50;;;;;;;4.98;79.72;101273.81;5109356;28;20209;-62
2022/12/28 01:04:18;;;;;;;15.70;7.77;;;;;;;5.01;79.51;101273.66;5105526;28;20229;-62
2022/12/28 01:06:46;;;;;;;14.50;7.40;;;;;;;4.98;79.79;101272.97;5104084;28;20209;-62
2022/12/28 01:09:13;;;;;;;18.63;8.30;;;;;;;4.98;80.08;101272.97;5102894;28;20217;-62
2022/12/28 01:11:41;;;;;;;13.10;7.63;;;;;;;5.12;80.25;101270.34;5102585;28;20206;-63
2022/12/28 01:14:09;;;;;;;14.77;7.50;;;;;;;5.15;79.82;101268.38;5104051;28;20240;-63
2022/12/28 01:16:37;;;;;;;14.57;7.33;;;;;;;5.09;80.02;101262.66;5104889;28;20234;-63
2022/12/28 01:19:06;;;;;;;17.63;7.90;;;;;;;5.23;80.08;101245.09;5105552;28;20206;-63
2022/12/28 01:21:36;;;;;;;15.37;8.43;;;;;;;5.16;79.49;101240.31;5101783;28;20246;-62
2022/12/28 01:24:06;;;;;;;18.70;7.40;;;;;;;5.18;79.84;101248.97;5103326;28;20325;-63
2022/12/28 01:26:35;;;;;;;13.70;8.10;;;;;;;5.10;80.55;101235.44;5102376;28;20647;-61
2022/12/28 01:29:03;;;;;;;16.77;8.33;;;;;;;5.05;81.16;101233.06;5094770;28;20754;-61
2022/12/28 01:31:31;;;;;;;16.60;8.20;;;;;;;5.05;81.09;101219.09;5098360;28;20325;-61
2022/12/28 01:33:59;;;;;;;15.87;7.53;;;;;;;5.03;81.94;101224.44;5099587;28;20210;-61
2022/12/28 01:36:31;;;;;;;14.50;7.80;;;;;;;5.03;82.84;101215.69;5106688;28;20234;-61
2022/12/28 01:39:03;;;;;;;15.33;8.17;;;;;;;5.13;82.36;101208.94;5102862;28;20224;-61
2022/12/28 01:41:33;;;;;;;16.67;8.77;;;;;;;5.10;82.53;101209.97;5103210;28;20212;-60
2022/12/28 01:44:43;;;;;;;15.90;7.90;;;;;;;5.10;82.79;101193.38;5103017;28;20549;-63
2022/12/28 01:47:18;;;;;;;15.73;7.70;;;;;;;5.11;83.27;101195.03;5076747;28;20304;-61
2022/12/28 01:49:55;;;;;;;13.53;7.17;;;;;;;5.12;83.38;101191.47;5092572;28;20216;-63
2022/12/28 01:52:29;;;;;;;13.43;7.30;;;;;;;5.15;83.48;101181.63;5096422;28;20738;-61
2022/12/28 01:55:04;;;;;;;14.40;7.70;;;;;;;5.06;83.62;101181.34;5105720;28;20203;-62
2022/12/28 01:57:37;;;;;;;12.47;7.37;;;;;;;4.99;84.21;101190.56;5098419;28;20214;-61
2022/12/28 02:00:09;;;;;;;15.33;8.30;;;;;;;5.07;84.15;101185.66;5104036;28;20559;-61
2022/12/28 02:02:38;;;;;;;17.87;8.27;;;;;;;5.08;84.25;101171.59;5101665;28;20208;-61
2022/12/28 02:05:07;;;;;;;15.60;8.33;;;;;;;5.15;83.81;101165.84;5102247;28;20253;-61
2022/12/28 02:07:42;;;;;;;15.90;7.97;;;;;;;5.21;83.42;101172.50;5103117;28;20210;-61
2022/12/28 02:10:11;;;;;;;15.50;7.90;;;;;;;5.23;83.33;101186.41;5107022;28;20599;-61
2022/12/28 02:13:00;;;;;;;17.90;8.40;;;;;;;5.29;82.70;101200.00;5100629;28;20234;-61
2022/12/28 02:15:28;;;;;;;17.73;8.80;;;;;;;5.41;82.86;101198.38;5103611;28;20234;-61
2022/12/28 02:17:56;;;;;;;12.73;7.33;;;;;;;5.49;81.70;101190.84;5102601;28;20207;-61
2022/12/28 02:20:33;;;;;;;14.73;8.03;;;;;;;5.43;81.81;101175.47;5108137;28;20276;-62
2022/12/28 02:23:27;;;;;;;14.30;7.63;;;;;;;5.43;81.72;101174.63;5099473;28;20246;-62
2022/12/28 02:26:26;;;;;;;15.20;7.77;;;;;;;5.36;81.90;101163.66;5104478;28;20241;-61
2022/12/28 02:29:21;;;;;;;16.57;7.50;;;;;;;5.41;82.17;101176.50;5102254;28;20675;-62
2022/12/28 02:31:58;;;;;;;15.03;7.57;;;;;;;5.47;82.00;101181.34;5088994;28;20238;-62
2022/12/28 02:34:32;;;;;;;14.33;8.03;;;;;;;5.46;81.95;101174.41;5102577;28;20210;-62
2022/12/28 02:37:03;;;;;;;12.67;7.10;;;;;;;5.40;82.18;101169.53;5104567;28;20631;-62
2022/12/28 02:39:37;;;;;;;16.00;7.27;;;;;;;5.38;82.78;101164.38;5101767;28;20217;-62
2022/12/28 02:42:08;;;;;;;16.57;7.20;;;;;;;5.39;82.56;101163.44;5100523;28;20545;-62
2022/12/28 02:50:15;;;;;;;13.47;6.87;;;;;;;5.74;81.10;101163.78;5105626;28;20229;-62
2022/12/28 02:53:11;;;;;;;13.53;7.40;;;;;;;5.74;80.16;101137.47;5108669;28;20222;-62
2022/12/28 02:56:07;;;;;;;14.70;6.80;;;;;;;5.71;80.68;101150.84;5105669;28;20744;-61
2022/12/28 02:59:04;;;;;;;11.80;6.70;;;;;;;5.70;80.83;101151.78;5109261;28;20290;-62
2022/12/28 03:01:58;;;;;;;11.67;6.23;;;;;;;5.71;80.76;101147.38;5109722;28;20202;-62
2022/12/28 03:04:37;;;;;;;11.73;5.90;;;;;;;5.64;81.82;101142.50;5106000;28;20226;-61
2022/12/28 03:10:06;;;;;;;12.30;6.57;;;;;;;5.79;81.75;101147.72;5106675;28;20237;-61
2022/12/28 03:12:40;;;;;;;11.33;5.77;;;;;;;5.80;82.22;101136.25;5105325;28;20705;-62
2022/12/28 03:15:28;;;;;;;11.23;6.03;;;;;;;5.84;82.51;101132.44;5106051;28;20205;-62
2022/12/28 03:32:03;;;;;;;13.07;5.83;;;;;;;6.05;83.24;101102.09;5103807;28;20274;-62
2022/12/28 03:34:54;;;;;;;12.23;6.07;;;;;;;6.00;83.36;101091.84;5104541;28;20260;-63
2022/12/28 03:37:27;;;;;;;11.03;5.83;;;;;;;6.02;83.80;101094.38;5094562;28;20663;-62
2022/12/28 03:40:02;;;;;;;13.63;6.77;;;;;;;6.10;84.00;101097.34;5104839;28;20561;-62
2022/12/28 03:45:24;;;;;;;9.50;5.70;;;;;;;6.06;84.14;101069.56;5106704;28;20222;-62
2022/12/28 03:48:12;;;;;;;11.33;6.10;;;;;;;6.06;84.02;101064.28;5104946;28;21237;-62
2022/12/28 03:50:45;;;;;;;12.87;5.83;;;;;;;6.09;84.62;101063.22;5104725;27;20283;-62
2022/12/28 03:53:13;;;;;;;12.07;5.30;;;;;;;6.14;84.25;101051.44;5105160;28;20222;-62
2022/12/28 03:55:42;;;;;;;11.50;5.77;;;;;;;6.18;84.03;101047.63;5106811;28;20194;-62
2022/12/28 03:58:10;;;;;;;12.03;5.73;;;;;;;6.19;83.69;101044.06;5101770;28;20203;-61
2022/12/28 04:00:37;;;;;;;12.10;5.87;;;;;;;6.19;84.28;101043.19;5104105;28;20214;-62
2022/12/28 04:03:05;;;;;;;11.97;5.57;;;;;;;6.24;84.26;101041.97;5104594;28;20243;-62
2022/12/28 04:05:33;;;;;;;11.57;5.67;;;;;;;6.32;83.91;101037.00;5103947;28;20563;-62
2022/12/28 04:08:02;;;;;;;11.03;5.60;;;;;;;6.35;83.57;101031.50;5112758;28;20249;-62
2022/12/28 04:10:30;;;;;;;10.77;5.90;;;;;;;6.42;83.33;101022.19;5104893;28;20425;-62
2022/12/28 04:12:58;;;;;;;10.80;5.53;;;;;;;6.42;83.09;101022.19;5105343;28;20237;-62
2022/12/28 04:15:25;;;;;;;13.87;5.67;;;;;;;6.36;83.36;101022.66;5104092;28;20235;-62
2022/12/28 04:17:53;;;;;;;12.00;5.10;;;;;;;6.37;83.56;101021.69;5107644;28;20297;-62
2022/12/28 04:20:21;;;;;;;11.30;5.57;;;;;;;6.37;83.44;101026.13;5106108;28;20233;-61
2022/12/28 04:22:49;;;;;;;9.13;5.23;;;;;;;6.41;83.37;101030.25;5104490;28;20202;-62
2022/12/28 04:25:18;;;;;;;10.50;5.10;;;;;;;6.43;83.16;101033.59;5102828;28;20231;-62
2022/12/28 04:27:46;;;;;;;9.20;4.93;;;;;;;6.49;83.06;101029.69;5103350;28;20218;-62
2022/12/28 04:30:14;;;;;;;9.37;4.30;;;;;;;6.52;82.92;101030.31;5096463;28;20873;-62
2022/12/28 04:32:42;;;;;;;11.17;5.10;;;;;;;6.55;82.93;101032.72;5102384;28;20210;-61
2022/12/28 04:35:09;;;;;;;9.47;5.03;;;;;;;6.56;82.71;101020.41;5103980;28;20293;-62
2022/12/28 04:37:37;;;;;;;13.40;5.13;;;;;;;6.59;82.46;101014.91;5103583;28;20206;-62
2022/12/28 04:40:06;;;;;;;9.63;4.80;;;;;;;6.62;82.42;101012.03;5103926;28;20219;-62
2022/12/28 04:42:35;;;;;;;8.43;4.60;;;;;;;6.63;82.29;101011.09;5104437;28;20210;-62
2022/12/28 04:45:03;;;;;;;10.57;4.93;;;;;;;6.74;81.62;101014.66;5103775;28;20593;-62
2022/12/28 04:47:31;;;;;;;10.53;6.10;;;;;;;6.72;81.75;101016.56;5110495;28;20203;-62
2022/12/28 04:49:59;;;;;;;10.00;4.80;;;;;;;6.75;81.44;101012.88;5105399;28;20234;-62
2022/12/28 04:52:27;;;;;;;10.23;5.17;;;;;;;6.77;81.35;101011.78;5098287;28;20213;-62
2022/12/28 04:54:54;;;;;;;7.80;4.60;;;;;;;6.79;81.81;101014.31;5102633;28;20204;-62
2022/12/28 04:57:22;;;;;;;8.43;4.40;;;;;;;6.85;81.23;101024.44;5103358;28;20218;-63
2022/12/28 04:59:51;;;;;;;13.77;4.50;;;;;;;6.86;81.10;101020.00;5102746;28;20225;-62
2022/12/28 05:02:19;;;;;;;8.23;4.33;;;;;;;6.80;81.42;101018.63;5105525;28;20298;-62
2022/12/28 05:04:47;;;;;;;8.57;4.10;;;;;;;6.82;81.48;101019.38;5103103;28;20209;-62
2022/12/28 05:07:20;;;;;;;10.93;4.03;;;;;;;6.86;81.36;101010.28;5109235;28;20231;-62
2022/12/28 05:09:47;;;;;;;10.90;3.93;;;;;;;6.82;81.39;101011.47;5099501;28;20225;-63
2022/12/28 05:12:15;;;;;;;9.37;3.80;;;;;;;6.83;81.66;101010.50;5104720;28;20283;-62
2022/12/28 05:14:43;;;;;;;8.43;4.10;;;;;;;6.86;81.56;101015.53;5102163;28;20212;-62
2022/12/28 05:17:12;;;;;;;8.17;3.80;;;;;;;6.93;81.10;101018.59;5105562;28;20210;-62
2022/12/28 05:19:40;;;;;;;8.60;3.67;;;;;;;6.91;81.29;101009.97;5102413;28;20215;-62
2022/12/28 05:22:10;;;;;;;7.10;3.97;;;;;;;6.88;81.19;101007.53;5101951;28;20563;-62
2022/12/28 05:24:38;;;;;;;8.20;3.87;;;;;;;6.92;81.23;100995.81;5104736;28;20294;-62
2022/12/28 05:27:06;;;;;;;11.00;3.87;;;;;;;6.85;81.50;100990.16;5106060;28;20226;-63
2022/12/28 05:29:33;;;;;;;8.33;4.27;;;;;;;6.95;81.07;100990.34;5105171;28;20214;-62
2022/12/28 05:32:01;;;;;;;11.20;3.57;;;;;;;6.90;80.93;100977.47;5107129;28;20728;-62
2022/12/28 05:34:30;;;;;;;7.77;4.03;;;;;;;6.88;81.44;100981.16;5100258;28;20574;-62
2022/12/28 05:36:58;;;;;;;7.23;3.87;;;;;;;6.93;81.26;100966.72;5101816;28;20297;-62
2022/12/28 05:39:26;;;;;;;7.23;3.50;;;;;;;6.94;80.64;100968.41;5102465;28;20309;-63
2022/12/28 05:41:53;;;;;;;9.10;3.87;;;;;;;6.87;80.79;100968.94;5105073;28;20572;-62
2022/12/28 05:44:21;;;;;;;8.60;3.47;;;;;;;6.91;81.05;100965.97;5088621;28;20211;-62
2022/12/28 05:46:49;;;;;;;8.40;3.93;;;;;;;6.89;80.82;100965.25;5103809;28;20223;-62
2022/12/28 05:49:16;;;;;;;6.67;3.77;;;;;;;6.85;81.18;100965.59;5103472;28;20234;-62
2022/12/28 05:51:50;;;;;;;6.23;3.80;;;;;;;6.86;81.31;100965.47;5108262;28;20655;-62
2022/12/28 05:54:22;;;;;;;5.93;3.47;;;;;;;6.88;81.02;100962.72;5100760;28;20297;-62
2022/12/28 05:56:51;;;;;;;8.03;3.77;;;;;;;6.95;81.08;100962.16;5103332;28;20194;-62
2022/12/28 05:59:18;;;;;;;7.70;4.30;;;;;;;6.95;80.49;100959.50;5099320;28;20689;-62
2022/12/28 06:01:46;;;;;;;7.27;3.17;;;;;;;6.92;80.61;100964.19;5102985;28;20230;-62
2022/12/28 06:04:16;;;;;;;12.47;3.80;;;;;;;6.88;81.15;100958.28;5105694;28;20237;-62
2022/12/28 06:06:47;;;;;;;5.67;3.50;;;;;;;6.87;81.37;100956.59;5103661;28;20231;-62
2022/12/28 06:09:17;;;;;;;7.27;3.50;;;;;;;6.95;81.11;100956.06;5102374;28;20200;-63
2022/12/28 06:11:47;;;;;;;7.03;3.37;;;;;;;6.94;80.96;100960.50;5104934;28;20339;-62
2022/12/28 06:14:16;;;;;;;8.47;3.77;;;;;;;6.93;81.06;100950.91;5107578;28;20572;-62
2022/12/28 06:16:44;;;;;;;8.93;3.90;;;;;;;6.93;81.16;100950.06;5108267;28;20207;-62
2022/12/28 06:19:14;;;;;;;7.53;3.60;;;;;;;6.91;81.11;100952.81;5100703;28;20212;-62
2022/12/28 06:21:42;;;;;;;8.43;3.80;;;;;;;6.96;81.21;100950.66;5100538;28;20206;-63
2022/12/28 06:24:12;;;;;;;6.60;3.67;;;;;;;7.00;80.80;100956.56;5106609;28;20396;-62
2022/12/28 06:26:41;;;;;;;8.70;3.30;;;;;;;6.92;81.25;100954.47;5110992;28;20287;-62
2022/12/28 06:29:09;;;;;;;7.30;3.30;;;;;;;6.94;81.08;100952.59;5099186;28;20218;-63
2022/12/28 06:31:39;;;;;;;6.67;3.70;;;;;;;6.98;81.19;100950.53;5110197;28;20330;-62
2022/12/28 06:34:08;;;;;;;8.50;3.10;;;;;;;7.06;80.54;100941.09;5106539;28;20295;-62
2022/12/28 06:36:38;;;;;;;8.23;3.40;;;;;;;7.01;80.59;100932.72;5106835;28;20211;-63
2022/12/28 06:39:08;;;;;;;10.33;4.17;;;;;;;6.98;80.83;100935.56;5110708;27;20697;-62
2022/12/28 06:41:38;;;;;;;7.77;3.57;;;;;;;7.01;80.90;100937.97;5108135;28;20221;-62
2022/12/28 06:44:07;;;;;;;8.63;3.90;;;;;;;7.02;80.83;100942.31;5107067;28;20218;-62
2022/12/28 06:46:34;;;;;;;7.43;3.63;;;;;;;7.05;80.53;100939.41;5106551;28;20220;-62
2022/12/28 06:49:02;;;;;;;7.33;3.33;;;;;;;7.04;80.54;100935.09;5110703;28;20203;-62
2022/12/28 06:51:34;;;;;;;6.77;3.33;;;;;;;7.07;80.75;100934.88;5105162;28;20648;-62
2022/12/28 06:54:02;;;;;;;7.43;3.40;;;;;;;7.03;80.72;100925.53;5102820;28;20647;-62
2022/12/28 06:56:32;;;;;;;7.27;3.10;;;;;;;7.08;80.66;100933.09;5108995;28;20238;-61
2022/12/28 06:59:02;;;;;;;6.73;2.70;;;;;;;7.12;80.66;100927.44;5103113;28;20294;-61
2022/12/28 07:01:33;;;;;;;6.90;3.90;;;;;;;7.21;80.13;100933.88;5105437;28;20257;-61
2022/12/28 07:04:02;;;;;;;5.33;2.83;;;;;;;7.16;80.32;100928.06;5109000;28;20664;-62
2022/12/28 07:06:35;;;;;;;6.30;2.70;;;;;;;7.20;80.25;100926.91;5106924;28;20227;-60
2022/12/28 07:09:05;;;;;;;7.33;3.20;;;;;;;7.25;80.16;100934.47;5106652;28;20693;-63
2022/12/28 07:11:33;;;;;;;7.27;2.73;;;;;;;7.26;79.96;100921.16;5108695;28;20816;-61
2022/12/28 07:14:02;;;;;;;6.17;2.97;;;;;;;7.32;79.90;100930.41;5108602;28;20233;-61
2022/12/28 07:16:31;;;;;;;8.93;3.33;;;;;;;7.29;79.51;100926.22;5109702;28;20249;-61
2022/12/28 07:19:01;;;;;;;7.07;3.10;;;;;;;7.24;79.74;100922.22;5103491;28;20212;-62
2022/12/28 07:21:35;;;;;;;9.90;3.10;;;;;;;7.26;79.58;100928.22;5106199;28;20219;-61
2022/12/28 07:24:05;;;;;;;6.53;2.87;;;;;;;7.30;79.31;100917.31;5106959;28;20209;-62
2022/12/28 07:26:35;;;;;;;8.03;2.90;;;;;;;7.27;79.33;100914.94;5105515;28;20222;-62
2022/12/28 07:29:06;;;;;;;8.27;3.03;;;;;;;7.28;79.37;100910.50;5091879;28;20219;-60
2022/12/28 07:31:35;;;;;;;6.03;3.03;;;;;;;7.28;79.32;100910.50;5103226;28;20295;-62
2022/12/28 07:34:11;;;;;;;7.77;3.00;;;;;;;7.31;79.05;100897.06;5111096;27;20207;-61
2022/12/28 07:36:39;;;;;;;6.67;3.20;;;;;;;7.34;78.87;100894.19;5112452;28;20298;-63
2022/12/28 07:39:07;;;;;;;5.73;2.80;;;;;;;7.31;78.88;100894.41;5105115;28;20246;-62
2022/12/28 07:41:35;;;;;;;6.63;3.00;;;;;;;7.30;78.94;100895.41;5109289;28;20254;-62
2022/12/28 07:44:05;;;;;;;5.20;2.80;;;;;;;7.35;78.55;100903.78;5104564;28;20268;-62
2022/12/28 07:46:36;;;;;;;5.67;2.90;;;;;;;7.37;78.30;100901.88;5104760;28;20209;-62
2022/12/28 07:49:04;;;;;;;6.27;2.93;;;;;;;7.38;77.95;100898.28;5108126;28;20218;-62
2022/12/28 07:51:33;;;;;;;5.20;2.50;;;;;;;7.34;78.20;100891.56;5103078;28;20208;-62
2022/12/28 07:54:01;;;;;;;5.90;2.57;;;;;;;7.30;78.66;100892.75;5105215;28;20291;-62
2022/12/28 07:56:30;;;;;;;6.47;2.97;;;;;;;7.36;78.30;100889.66;5109710;28;20828;-62
2022/12/28 07:59:00;;;;;;;6.03;2.30;;;;;;;7.34;78.27;100886.28;5104154;28;20210;-60
2022/12/28 08:01:30;;;;;;;5.27;2.43;;;;;;;7.39;78.28;100884.13;5105168;28;20301;-61
2022/12/28 08:04:01;;;;;;;5.87;2.80;;;;;;;7.38;78.24;100878.03;5107990;27;20203;-60
2022/12/28 08:06:30;;;;;;;6.70;2.50;;;;;;;7.36;78.32;100871.19;5107675;28;20203;-62
2022/12/28 08:09:00;;;;;;;8.97;2.30;;;;;;;7.31;78.57;100874.16;5108729;28;20207;-62
2022/12/28 08:11:29;;;;;;;6.13;2.93;;;;;;;7.36;78.40;100860.63;5106155;28;20223;-62
2022/12/28 08:13:58;;;;;;;6.50;2.50;;;;;;;7.43;78.15;100860.03;5102549;28;20707;-62
2022/12/28 08:16:28;;;;;;;6.30;2.13;;;;;;;7.45;78.32;100862.56;5105470;28;20214;-62
2022/12/28 08:18:57;;;;;;;5.30;2.20;;;;;;;7.48;78.36;100859.66;5102693;28;20653;-63
2022/12/28 08:21:27;;;;;;;6.30;2.50;;;;;;;7.51;78.60;100867.34;5101302;28;20200;-63
2022/12/28 08:23:55;;;;;;;9.20;2.87;;;;;;;7.57;78.27;100874.78;5105750;28;20253;-62
2022/12/28 08:26:25;;;;;;;6.57;2.47;;;;;;;7.70;77.70;100878.16;5105758;28;20561;-60
2022/12/28 08:28:55;;;;;;;5.20;2.20;;;;;;;7.69;77.51;100881.75;5101149;28;20927;-62
2022/12/28 08:31:25;;;;;;;3.03;1.87;;;;;;;7.67;77.82;100878.38;5104971;28;20266;-62
2022/12/28 08:33:54;;;;;;;7.63;2.37;;;;;;;7.72;77.64;100876.25;5102751;28;20659;-63
2022/12/28 08:36:23;;;;;;;11.23;2.97;;;;;;;7.77;77.25;100884.63;5103954;28;20247;-62
2022/12/28 08:38:51;;;;;;;5.07;2.70;;;;;;;7.77;77.30;100879.34;5102896;28;20214;-63
2022/12/28 08:41:21;;;;;;;5.97;2.30;;;;;;;7.77;77.46;100889.06;5109230;28;20661;-62
2022/12/28 08:43:50;;;;;;;8.93;3.13;;;;;;;7.78;77.48;100880.19;5102660;28;20548;-62
2022/12/28 08:46:19;;;;;;;6.83;2.60;;;;;;;7.75;77.49;100878.63;5104271;28;20285;-63
2022/12/28 08:48:49;;;;;;;10.03;2.67;;;;;;;7.79;77.73;100876.59;5105169;28;20235;-63
2022/12/28 08:51:19;;;;;;;5.90;2.60;;;;;;;7.82;77.70;100877.22;5105656;28;20219;-61
2022/12/28 08:53:48;;;;;;;6.67;2.67;;;;;;;7.89;77.28;100878.41;5101746;28;20290;-62
2022/12/28 08:56:28;;;;;;;4.90;2.77;;;;;;;7.97;76.95;100863.75;5104760;28;20281;-63
2022/12/28 08:58:59;;;;;;;6.27;2.67;;;;;;;7.98;76.61;100865.44;5105392;28;20223;-62
2022/12/28 09:01:31;;;;;;;4.87;2.10;;;;;;;8.03;76.68;100865.88;5107229;28;20217;-60
2022/12/28 09:04:05;;;;;;;5.83;2.57;;;;;;;8.12;76.59;100870.44;5106016;28;20631;-63
2022/12/28 09:06:36;;;;;;;14.63;5.43;;;;;;;8.21;76.50;100862.63;5103456;28;20613;-62
2022/12/28 09:09:07;;;;;;;7.97;3.73;;;;;;;8.42;75.77;100860.09;5107247;28;20260;-62
2022/12/28 09:11:36;;;;;;;8.17;3.27;;;;;;;8.62;75.02;100866.38;5103610;28;20244;-62
2022/12/28 09:14:08;;;;;;;19.43;5.43;;;;;;;8.78;73.87;100861.53;5100645;28;20234;-62
2022/12/28 09:16:39;;;;;;;7.53;3.27;;;;;;;8.83;73.34;100869.91;5106542;28;20237;-63
2022/12/28 09:19:09;;;;;;;10.70;3.17;;;;;;;8.97;73.07;100861.63;5100670;28;20235;-63
2022/12/28 09:21:38;;;;;;;6.40;3.03;;;;;;;9.02;72.93;100855.97;5104141;28;20205;-62
2022/12/28 09:24:08;;;;;;;8.43;2.90;;;;;;;9.12;72.95;100853.41;5104932;28;20216;-62
2022/12/28 09:26:38;;;;;;;7.07;3.43;;;;;;;9.15;73.04;100853.97;5101039;28;20572;-62
2022/12/28 09:29:08;;;;;;;10.23;3.20;;;;;;;9.23;71.97;100846.25;5105117;28;20584;-63
2022/12/28 09:31:37;;;;;;;7.87;2.30;;;;;;;9.33;71.51;100856.84;5106584;28;20249;-61
2022/12/28 09:34:05;;;;;;;10.00;3.67;;;;;;;9.37;72.05;100858.28;5101100;28;20210;-61
2022/12/28 09:36:53;;;;;;;8.40;2.80;;;;;;;9.52;71.53;100845.53;5102885;28;20218;-63
2022/12/28 09:39:23;;;;;;;5.37;2.63;;;;;;;9.64;71.28;100845.31;5101539;28;20302;-62
2022/12/28 09:41:55;;;;;;;6.47;3.00;;;;;;;9.72;71.51;100845.50;5102780;28;20198;-62
2022/12/28 09:44:36;;;;;;;5.77;2.67;;;;;;;9.96;70.40;100849.63;5100717;28;20340;-63
2022/12/28 09:47:16;;;;;;;3.63;2.17;;;;;;;10.04;69.90;100842.66;5101953;28;20198;-62
2022/12/28 09:49:50;;;;;;;4.60;1.90;;;;;;;10.15;69.31;100852.31;5105429;28;20214;-62
2022/12/28 09:52:27;;;;;;;4.10;2.10;;;;;;;10.18;68.99;100839.69;5104158;28;20209;-62
2022/12/28 09:55:04;;;;;;;3.50;1.70;;;;;;;10.31;68.15;100838.56;5107073;28;20214;-62
2022/12/28 09:57:36;;;;;;;5.63;2.10;;;;;;;10.29;68.08;100840.53;5108182;28;20202;-62
2022/12/28 10:00:07;;;;;;;7.53;1.90;;;;;;;10.40;68.11;100841.22;5101613;28;20238;-62
2022/12/28 10:02:38;;;;;;;7.97;2.40;;;;;;;10.44;67.97;100844.47;5101441;28;20656;-62
2022/12/28 10:05:07;;;;;;;5.67;1.80;;;;;;;10.57;67.37;100834.41;5100927;28;20214;-62
2022/12/28 10:07:36;;;;;;;5.10;1.80;;;;;;;10.64;67.33;100848.81;5097115;28;20220;-62
2022/12/28 10:10:06;;;;;;;3.63;1.70;;;;;;;10.71;66.85;100839.31;5101359;28;20276;-62
2022/12/28 10:12:35;;;;;;;5.23;1.60;;;;;;;10.73;66.75;100839.97;5102282;28;20234;-63
2022/12/28 10:15:06;;;;;;;3.33;1.30;;;;;;;10.76;67.21;100834.41;5103067;28;20204;-62
2022/12/28 10:17:34;;;;;;;5.50;1.90;;;;;;;10.84;66.67;100826.56;5103045;28;20226;-62
2022/12/28 10:20:01;;;;;;;5.70;1.80;;;;;;;10.90;65.94;100818.06;5103047;28;20205;-62
2022/12/28 10:22:38;;;;;;;3.73;1.70;;;;;;;10.96;66.06;100818.47;5103135;28;20298;-61
2022/12/28 10:25:16;;;;;;;7.23;2.00;;;;;;;11.06;65.60;100814.00;5104736;28;20201;-64
2022/12/28 10:27:44;;;;;;;8.23;3.47;;;;;;;11.01;65.75;100802.94;5095433;28;20254;-63
2022/12/28 10:30:19;;;;;;;8.03;2.83;;;;;;;10.92;66.27;100792.22;5098853;28;20246;-63
2022/12/28 10:32:52;;;;;;;4.87;1.50;;;;;;;11.04;66.08;100805.31;5101305;28;20216;-63
2022/12/28 10:35:41;;;;;;;4.63;1.30;;;;;;;11.08;66.20;100801.44;5102553;28;20217;-61
2022/12/28 10:38:20;;;;;;;3.43;1.07;;;;;;;11.32;65.81;100809.72;5103334;28;20199;-62
2022/12/28 10:40:58;;;;;;;3.63;1.10;;;;;;;11.67;64.00;100796.59;5102800;28;20216;-62
2022/12/28 10:43:28;;;;;;;4.60;1.43;;;;;;;11.69;63.62;100797.28;5102466;28;20708;-62
2022/12/28 10:45:58;;;;;;;3.37;1.13;;;;;;;11.62;63.66;100790.03;5101794;28;20213;-61
2022/12/28 10:48:29;;;;;;;4.20;1.40;;;;;;;11.67;63.16;100793.94;5104318;28;20265;-62
2022/12/28 10:51:00;;;;;;;3.80;1.20;;;;;;;11.39;63.74;100784.28;5101216;28;20212;-62
2022/12/28 10:53:31;;;;;;;4.00;1.20;;;;;;;11.27;63.91;100783.59;5104296;28;20859;-62
2022/12/28 10:56:19;;;;;;;8.97;1.93;;;;;;;11.16;64.59;100777.66;5100704;28;20296;-63
2022/12/28 10:58:48;;;;;;;7.83;1.80;;;;;;;11.15;65.13;100775.97;5101230;28;20289;-62
2022/12/28 11:01:19;;;;;;;2.93;1.53;;;;;;;11.40;64.72;100756.75;5104563;28;20689;-63
2022/12/28 11:04:00;;;;;;;4.17;1.67;;;;;;;11.66;63.33;100754.22;5100054;28;20226;-62
2022/12/28 11:06:29;;;;;;;3.57;1.33;;;;;;;11.85;62.32;100748.84;5104963;28;20201;-63
2022/12/28 11:09:16;;;;;;;7.30;1.70;;;;;;;12.37;61.42;100743.69;5107189;28;20583;-63
2022/12/28 11:11:46;;;;;;;4.37;1.30;;;;;;;12.79;59.55;100746.53;5105303;28;20210;-61
2022/12/28 11:14:25;;;;;;;4.43;1.70;;;;;;;12.74;58.75;100741.69;5105818;28;20198;-62
2022/12/28 11:16:53;;;;;;;4.87;1.30;;;;;;;12.33;59.25;100737.84;5108772;28;20213;-62
2022/12/28 11:19:22;;;;;;;5.77;1.70;;;;;;;12.04;60.51;100737.25;5107743;27;20212;-62
2022/12/28 11:21:50;;;;;;;4.90;1.73;;;;;;;11.70;61.25;100737.84;5106216;28;20743;-62
2022/12/28 11:24:20;;;;;;;6.77;1.80;;;;;;;11.47;62.10;100741.03;5103383;28;20244;-63
2022/12/28 11:26:50;;;;;;;4.37;1.87;;;;;;;11.27;62.97;100732.31;5102905;28;20213;-63
2022/12/28 11:29:19;;;;;;;4.40;2.73;;;;;;;11.11;63.67;100729.47;5105975;28;20232;-62
2022/12/28 11:31:51;;;;;;;5.73;1.67;;;;;;;10.85;64.85;100727.44;5104223;28;20328;-63
2022/12/28 11:34:23;;;;;;;3.00;1.27;;;;;;;10.81;65.14;100720.78;5104496;28;20210;-61
2022/12/28 11:36:51;;;;;;;4.17;1.47;;;;;;;10.82;65.34;100706.50;5108396;28;20216;-61
2022/12/28 11:39:42;;;;;;;3.37;1.60;;;;;;;10.91;64.95;100708.28;5105188;28;20681;-61
2022/12/28 11:42:13;;;;;;;4.90;1.23;;;;;;;10.93;65.27;100703.69;5105759;28;20830;-61
2022/12/28 11:45:01;;;;;;;5.40;1.30;;;;;;;10.94;65.07;100707.16;5104183;28;20205;-62
2022/12/28 11:47:34;;;;;;;4.53;1.17;;;;;;;10.88;65.61;100705.94;5105566;28;20214;-62
2022/12/28 11:50:40;;;;;;;3.63;1.27;;;;;;;10.69;66.33;100706.00;5107470;28;20233;-63
2022/12/28 11:53:22;;;;;;;4.53;1.23;;;;;;;10.63;67.12;100700.44;5105642;28;20225;-62
2022/12/28 11:56:06;;;;;;;3.57;1.70;;;;;;;10.60;67.82;100706.00;5104449;28;20206;-62
2022/12/28 11:59:20;;;;;;;5.23;1.30;;;;;;;10.51;68.85;100697.09;5108283;28;20213;-61
2022/12/28 12:01:56;;;;;;;6.97;1.27;;;;;;;10.48;69.35;100690.25;5107801;28;20639;-62
2022/12/28 12:04:38;;;;;;;3.83;1.57;;;;;;;10.43;70.20;100687.19;5105414;28;20528;-62
2022/12/28 12:07:24;;;;;;;4.83;1.60;;;;;;;10.49;70.66;100672.53;5102069;28;20648;-63
2022/12/28 12:10:32;;;;;;;3.23;1.20;;;;;;;10.46;71.50;100667.53;5108166;28;20243;-63
2022/12/28 12:13:04;;;;;;;4.97;1.70;;;;;;;10.55;71.69;100656.88;5105589;28;20236;-62
2022/12/28 12:15:39;;;;;;;6.70;2.00;;;;;;;10.56;71.77;100649.75;5107536;27;20216;-63
2022/12/28 12:18:18;;;;;;;6.23;2.37;;;;;;;10.61;71.86;100650.19;5104986;28;20214;-61